Time;durP1;ratioP1;P1;durP2;ratioP2;P2;SDS_P1;SDS_P2;PMS_P1;PMS_P2;Temp;Humidity;BMP_temperature;BMP_pressure;BME280_temperature;BME280_humidity;BME280_pressure;Samples;Min_cycle;Max_cycle;Signal;HPM_P1;HPM_P2
2022/12/15 00:40:38;;;;;;;10.73;7.85;;;-1.10;73.60;;;;;;5072750;28;20269;-78
2022/12/15 00:43:04;;;;;;;8.77;7.43;;;-1.10;73.60;;;;;;5055087;28;20047;-77
2022/12/15 00:48:14;;;;;;;10.70;7.65;;;-1.10;73.60;;;;;;5055034;28;20036;-77
2022/12/15 00:50:51;;;;;;;9.40;7.43;;;-1.10;73.60;;;;;;5072488;28;20567;-77
2022/12/15 01:20:43;;;;;;;10.05;7.45;;;-1.20;73.60;;;;;;5075284;28;20052;-77
2022/12/15 01:23:09;;;;;;;10.77;7.78;;;-1.20;73.60;;;;;;5075697;28;20463;-77
2022/12/15 01:25:38;;;;;;;10.45;7.63;;;-1.20;73.60;;;;;;5074447;28;20029;-78
2022/12/15 01:28:04;;;;;;;10.90;7.88;;;-1.20;73.60;;;;;;5076119;28;20041;-77
2022/12/15 01:30:30;;;;;;;11.02;7.78;;;-1.20;73.60;;;;;;5058391;28;20041;-77
2022/12/15 01:32:56;;;;;;;10.95;7.43;;;-1.20;73.60;;;;;;5075473;28;20047;-77
2022/12/15 01:35:21;;;;;;;11.23;7.47;;;-1.20;73.60;;;;;;5058065;28;20487;-77
2022/12/15 01:37:47;;;;;;;10.38;7.30;;;-1.20;73.70;;;;;;5076009;28;20028;-77
2022/12/15 01:43:00;;;;;;;11.40;7.60;;;-1.20;73.60;;;;;;5075872;28;20055;-77
2022/12/15 01:45:26;;;;;;;10.18;8.10;;;-1.20;73.50;;;;;;5074281;28;20032;-78
2022/12/15 01:47:56;;;;;;;10.10;7.70;;;-1.20;73.60;;;;;;5057859;28;20036;-77
2022/12/15 01:50:23;;;;;;;10.30;7.82;;;-1.30;73.50;;;;;;5074213;28;20024;-77
2022/12/15 01:52:49;;;;;;;11.52;8.63;;;-1.30;73.60;;;;;;5075772;28;20060;-77
2022/12/15 01:55:17;;;;;;;10.13;8.00;;;-1.30;73.50;;;;;;5057578;28;20025;-77
2022/12/15 01:57:44;;;;;;;10.02;7.97;;;-1.30;73.60;;;;;;5057769;28;20048;-77
2022/12/15 02:00:10;;;;;;;9.38;7.55;;;-1.30;73.60;;;;;;5074127;28;20128;-77
2022/12/15 02:02:37;;;;;;;10.05;7.57;;;-1.30;73.50;;;;;;5074449;28;20127;-78
2022/12/15 02:05:04;;;;;;;10.73;7.93;;;-1.30;73.50;;;;;;5056999;28;20095;-77
2022/12/15 02:07:30;;;;;;;9.43;7.90;;;-1.30;73.50;;;;;;5057139;28;20426;-77
2022/12/15 02:09:59;;;;;;;10.93;7.78;;;-1.30;73.50;;;;;;5040216;28;20120;-78
2022/12/15 02:12:39;;;;;;;10.23;8.15;;;-1.30;73.60;;;;;;5040507;28;20339;-77
2022/12/15 02:15:35;;;;;;;9.68;7.32;;;-1.30;73.50;;;;;;5041014;28;20358;-78
2022/12/15 02:18:23;;;;;;;9.38;7.28;;;-1.30;73.50;;;;;;5075045;28;20102;-78
2022/12/15 02:21:18;;;;;;;10.30;7.80;;;-1.30;73.60;;;;;;5056622;28;20072;-78
2022/12/15 02:24:05;;;;;;;11.23;7.32;;;-1.30;73.60;;;;;;5074774;28;20040;-77
2022/12/15 02:27:09;;;;;;;10.15;7.85;;;-1.40;73.50;;;;;;5056812;28;20052;-77
2022/12/15 02:30:05;;;;;;;11.57;8.13;;;-1.40;73.50;;;;;;5056864;28;20031;-78
2022/12/15 02:32:37;;;;;;;11.10;7.22;;;-1.40;73.50;;;;;;5039929;28;20050;-78
2022/12/15 02:35:24;;;;;;;10.10;7.78;;;-1.40;73.60;;;;;;5074400;28;20032;-78
2022/12/15 02:37:51;;;;;;;10.52;7.75;;;-1.40;73.60;;;;;;5056889;28;20032;-78
2022/12/15 02:40:17;;;;;;;10.52;8.13;;;-1.40;73.60;;;;;;5074553;28;20020;-76
2022/12/15 02:42:46;;;;;;;10.07;7.30;;;-1.40;73.60;;;;;;5056782;28;20044;-78
2022/12/15 02:45:15;;;;;;;9.65;7.30;;;-1.40;73.50;;;;;;5074171;28;20094;-78
2022/12/15 02:47:59;;;;;;;11.32;8.30;;;-1.40;73.60;;;;;;5074153;28;20117;-77
2022/12/15 02:51:02;;;;;;;10.45;7.47;;;-1.40;73.60;;;;;;5073565;28;20029;-77
2022/12/15 02:53:34;;;;;;;9.75;7.80;;;-1.40;73.50;;;;;;5056721;28;20029;-77
2022/12/15 02:56:17;;;;;;;10.00;8.00;;;-1.40;73.50;;;;;;5074014;28;20381;-78
2022/12/15 02:58:58;;;;;;;9.25;7.20;;;-1.40;73.60;;;;;;5056815;28;20054;-77
2022/12/15 03:01:32;;;;;;;10.30;7.93;;;-1.40;73.60;;;;;;5073279;28;20374;-77
2022/12/15 03:04:01;;;;;;;10.07;7.77;;;-1.50;73.50;;;;;;5056319;28;20079;-77
2022/12/15 03:06:27;;;;;;;8.98;6.88;;;-1.50;73.50;;;;;;5072995;28;20035;-77
2022/12/15 03:08:53;;;;;;;10.73;7.75;;;-1.50;73.50;;;;;;5056052;28;20032;-77
2022/12/15 03:11:19;;;;;;;10.70;7.68;;;-1.50;73.50;;;;;;5073715;28;20043;-77
2022/12/15 03:13:44;;;;;;;10.75;8.02;;;-1.50;73.50;;;;;;5074101;28;20041;-77
2022/12/15 03:16:10;;;;;;;9.15;7.38;;;-1.50;73.50;;;;;;5072446;28;20032;-76
2022/12/15 03:18:36;;;;;;;10.43;7.65;;;-1.50;73.50;;;;;;5055583;28;20043;-78
2022/12/15 03:21:02;;;;;;;10.77;7.68;;;-1.50;73.50;;;;;;5071599;28;20029;-78
2022/12/15 03:23:28;;;;;;;11.18;7.40;;;-1.50;73.40;;;;;;5055635;28;20040;-77
2022/12/15 03:25:54;;;;;;;9.88;7.63;;;-1.50;73.40;;;;;;5055730;28;20078;-77
2022/12/15 03:28:20;;;;;;;9.75;7.35;;;-1.50;73.40;;;;;;5055379;28;20024;-77
2022/12/15 03:30:48;;;;;;;9.35;7.40;;;-1.50;73.40;;;;;;5055351;28;20036;-78
2022/12/15 03:33:14;;;;;;;9.88;7.65;;;-1.50;73.40;;;;;;5055942;28;20033;-78
2022/12/15 03:35:40;;;;;;;10.27;6.90;;;-1.50;73.40;;;;;;5055666;28;20362;-78
2022/12/15 03:38:05;;;;;;;11.32;8.70;;;-1.50;73.40;;;;;;5055588;28;20021;-77
2022/12/15 03:40:31;;;;;;;12.27;8.15;;;-1.50;73.40;;;;;;5055591;28;20029;-77
2022/12/15 03:42:57;;;;;;;10.45;7.63;;;-1.50;73.40;;;;;;5073134;28;20068;-77
2022/12/15 03:45:25;;;;;;;10.90;7.93;;;-1.50;73.40;;;;;;5055504;28;20081;-77
2022/12/15 03:47:52;;;;;;;10.32;7.40;;;-1.50;73.40;;;;;;5055820;28;20457;-77
2022/12/15 03:50:21;;;;;;;9.65;7.30;;;-1.50;73.40;;;;;;5055386;28;20039;-76
2022/12/15 03:52:55;;;;;;;11.38;7.00;;;-1.50;73.40;;;;;;5073266;28;20043;-77
2022/12/15 03:55:21;;;;;;;10.13;7.13;;;-1.50;73.50;;;;;;5055711;28;20426;-78
2022/12/15 03:57:48;;;;;;;10.73;7.40;;;-1.50;73.40;;;;;;5073164;28;20024;-77
2022/12/15 04:00:15;;;;;;;9.65;7.55;;;-1.50;73.40;;;;;;5071979;28;20100;-78
2022/12/15 04:02:41;;;;;;;9.18;7.30;;;-1.50;73.40;;;;;;5055276;28;20033;-77
2022/12/15 04:05:15;;;;;;;10.20;7.20;;;-1.50;73.40;;;;;;5071955;28;20078;-77
2022/12/15 04:07:41;;;;;;;9.98;7.32;;;-1.60;73.40;;;;;;5055540;28;20063;-77
2022/12/15 04:10:07;;;;;;;10.68;7.22;;;-1.60;73.40;;;;;;5055052;28;20477;-77
2022/12/15 04:12:33;;;;;;;10.93;7.97;;;-1.60;73.40;;;;;;5072064;28;20420;-77
2022/12/15 04:14:59;;;;;;;9.30;7.25;;;-1.60;73.40;;;;;;5055681;28;20021;-77
2022/12/15 04:17:25;;;;;;;9.02;7.25;;;-1.60;73.40;;;;;;5073219;28;20070;-77
2022/12/15 04:20:08;;;;;;;10.18;7.35;;;-1.60;73.40;;;;;;5073069;28;20057;-77
2022/12/15 04:22:41;;;;;;;10.30;6.85;;;-1.60;73.40;;;;;;5072188;28;20037;-78
2022/12/15 05:33:54;;;;;;;10.80;8.35;;;-1.80;73.60;;;;;;5075800;28;20075;-77
2022/12/15 05:36:21;;;;;;;9.57;6.95;;;-1.80;73.60;;;;;;5074628;28;20102;-77
2022/12/15 05:38:51;;;;;;;10.00;7.63;;;-1.80;73.60;;;;;;5076319;28;20081;-76
2022/12/15 05:41:18;;;;;;;11.50;7.82;;;-1.80;73.60;;;;;;5058982;28;20041;-77
2022/12/15 05:43:45;;;;;;;10.05;7.75;;;-1.80;73.60;;;;;;5073839;28;20525;-77
2022/12/15 05:46:12;;;;;;;10.02;7.00;;;-1.80;73.60;;;;;;5042188;28;20037;-77
2022/12/15 05:48:37;;;;;;;10.90;7.50;;;-1.80;73.50;;;;;;5041111;28;20599;-77
2022/12/15 05:51:05;;;;;;;11.48;8.27;;;-1.80;73.50;;;;;;5057994;28;20052;-77
2022/12/15 05:53:30;;;;;;;9.45;7.15;;;-1.80;73.60;;;;;;5057593;28;20043;-77
2022/12/15 05:56:23;;;;;;;10.52;7.82;;;-1.80;73.50;;;;;;5041577;28;20033;-77
2022/12/15 05:58:49;;;;;;;10.15;7.85;;;-1.80;73.50;;;;;;5055325;28;20120;-77
2022/12/15 06:01:16;;;;;;;8.98;7.47;;;-1.80;73.50;;;;;;5074026;28;20450;-77
2022/12/15 06:03:42;;;;;;;11.40;7.70;;;-1.80;73.50;;;;;;5057237;28;20032;-77
2022/12/15 06:06:09;;;;;;;9.98;7.68;;;-1.80;73.50;;;;;;5057169;28;20385;-78
2022/12/15 06:08:38;;;;;;;10.63;7.47;;;-1.80;73.50;;;;;;5074270;28;20028;-77
2022/12/15 06:11:04;;;;;;;11.80;9.40;;;-1.80;73.50;;;;;;5075495;28;20070;-78
2022/12/15 06:13:31;;;;;;;10.38;8.02;;;-1.80;73.50;;;;;;5074892;28;20121;-77
2022/12/15 06:15:59;;;;;;;10.63;8.10;;;-1.80;73.50;;;;;;5057278;28;20028;-76
2022/12/15 06:18:27;;;;;;;10.57;7.80;;;-1.80;73.50;;;;;;5056674;28;20028;-77
2022/12/15 06:20:59;;;;;;;9.35;7.45;;;-1.80;73.50;;;;;;5073080;28;20041;-77
2022/12/15 06:23:26;;;;;;;10.68;8.13;;;-1.80;73.50;;;;;;5056752;28;20036;-78
2022/12/15 06:25:52;;;;;;;10.43;7.95;;;-1.80;73.50;;;;;;5073426;28;20513;-78
2022/12/15 06:28:22;;;;;;;10.30;8.07;;;-1.80;73.50;;;;;;5056589;28;20105;-77
2022/12/15 06:30:53;;;;;;;10.10;8.10;;;-1.80;73.50;;;;;;5074685;28;20103;-77
2022/12/15 06:33:20;;;;;;;11.90;8.13;;;-1.80;73.50;;;;;;5074766;28;20097;-77
2022/12/15 06:35:46;;;;;;;10.02;7.68;;;-1.80;73.50;;;;;;5056722;28;20051;-77
2022/12/15 06:38:12;;;;;;;11.25;8.25;;;-1.80;73.40;;;;;;5056383;28;20052;-78
2022/12/15 06:40:38;;;;;;;10.40;8.30;;;-1.80;73.40;;;;;;5073273;28;20145;-78
2022/12/15 06:43:05;;;;;;;10.35;8.50;;;-1.80;73.50;;;;;;5073095;28;20040;-77
2022/12/15 06:45:30;;;;;;;12.52;8.40;;;-1.80;73.50;;;;;;5056310;28;20036;-78
2022/12/15 06:47:56;;;;;;;11.68;8.07;;;-1.80;73.50;;;;;;5056649;28;20032;-76
2022/12/15 06:50:22;;;;;;;11.00;8.10;;;-1.80;73.50;;;;;;5056126;28;20039;-78
2022/12/15 06:52:47;;;;;;;11.40;8.50;;;-1.80;73.40;;;;;;5056333;28;20384;-77
2022/12/15 06:55:13;;;;;;;11.00;8.00;;;-1.80;73.40;;;;;;5055413;28;20455;-79
2022/12/15 06:57:39;;;;;;;9.68;7.88;;;-1.80;73.40;;;;;;5072993;28;20037;-78
2022/12/15 07:00:06;;;;;;;10.15;8.48;;;-1.80;73.40;;;;;;5074774;28;20036;-79
2022/12/15 07:02:31;;;;;;;11.90;8.88;;;-1.90;73.40;;;;;;5072722;28;20511;-78
2022/12/15 07:04:58;;;;;;;10.60;8.02;;;-1.90;73.30;;;;;;5056017;28;20024;-78
2022/12/15 07:07:24;;;;;;;10.82;8.48;;;-1.90;73.30;;;;;;5073842;28;20033;-78
2022/12/15 07:09:50;;;;;;;10.82;8.50;;;-1.90;73.40;;;;;;5056879;28;20032;-77
2022/12/15 07:12:16;;;;;;;12.13;8.32;;;-1.90;73.40;;;;;;5056535;28;20024;-78
2022/12/15 07:14:42;;;;;;;10.35;8.25;;;-1.90;73.40;;;;;;5073589;28;20024;-79
2022/12/15 07:17:12;;;;;;;10.73;8.13;;;-1.90;73.40;;;;;;5072512;28;20036;-76
2022/12/15 07:19:40;;;;;;;12.23;8.85;;;-1.90;73.40;;;;;;5056295;28;20044;-76
2022/12/15 07:22:06;;;;;;;11.60;8.68;;;-1.90;73.40;;;;;;5074285;28;20086;-78
2022/12/15 07:24:31;;;;;;;10.70;8.55;;;-1.90;73.40;;;;;;5072665;28;20024;-77
2022/12/15 07:26:57;;;;;;;12.30;8.70;;;-1.90;73.40;;;;;;5039882;28;20437;-77
2022/12/15 07:29:23;;;;;;;10.88;8.48;;;-1.90;73.40;;;;;;5055664;28;20473;-77
2022/12/15 07:31:49;;;;;;;11.90;8.07;;;-1.90;73.30;;;;;;5039251;28;20032;-77
2022/12/15 07:34:15;;;;;;;11.35;8.48;;;-1.90;73.30;;;;;;5072281;28;20485;-78
2022/12/15 07:36:40;;;;;;;12.13;9.00;;;-1.90;73.30;;;;;;5074139;28;20029;-78
2022/12/15 07:39:07;;;;;;;10.60;8.23;;;-1.90;73.30;;;;;;5055482;28;20034;-77
2022/12/15 07:41:34;;;;;;;11.98;8.38;;;-1.90;73.30;;;;;;5056446;28;20036;-78
2022/12/15 07:44:01;;;;;;;13.68;9.23;;;-1.90;73.30;;;;;;5055373;28;20487;-77
2022/12/15 07:46:27;;;;;;;11.95;8.80;;;-1.90;73.30;;;;;;5038715;28;20115;-79
2022/12/15 07:48:53;;;;;;;11.10;9.27;;;-1.90;73.30;;;;;;5072142;28;20025;-78
2022/12/15 07:51:21;;;;;;;11.32;8.50;;;-2.00;73.20;;;;;;5055848;28;20370;-78
2022/12/15 07:53:48;;;;;;;10.50;8.57;;;-1.90;73.30;;;;;;5055552;28;20039;-79
2022/12/15 07:56:14;;;;;;;13.30;9.15;;;-2.00;73.20;;;;;;5038857;28;20132;-78
2022/12/15 07:58:40;;;;;;;11.02;8.80;;;-1.90;73.30;;;;;;5055078;28;20238;-78
2022/12/15 08:01:09;;;;;;;13.18;9.13;;;-2.00;73.20;;;;;;5055821;28;20037;-78
2022/12/15 08:03:35;;;;;;;10.98;9.10;;;-2.00;73.20;;;;;;5072022;28;20044;-79
2022/12/15 08:06:10;;;;;;;13.65;9.70;;;-2.00;73.20;;;;;;5073085;28;20425;-78
2022/12/15 08:08:36;;;;;;;11.63;9.25;;;-2.00;73.30;;;;;;5062078;28;20050;-76
2022/12/15 08:11:09;;;;;;;11.77;8.18;;;-2.00;73.20;;;;;;5061894;28;20461;-79
2022/12/15 08:13:36;;;;;;;15.05;9.95;;;-2.00;73.20;;;;;;5080175;28;20453;-78
2022/12/15 08:16:01;;;;;;;11.93;8.27;;;-2.00;73.30;;;;;;5061931;28;20461;-78
2022/12/15 08:18:28;;;;;;;11.75;9.00;;;-2.00;73.20;;;;;;5078811;28;20032;-78
2022/12/15 08:20:53;;;;;;;11.00;8.45;;;-2.00;73.20;;;;;;5080275;28;20477;-78
2022/12/15 08:23:19;;;;;;;11.23;8.80;;;-2.00;73.30;;;;;;5079949;28;20066;-77
2022/12/15 08:25:45;;;;;;;12.35;9.32;;;-2.00;73.20;;;;;;5061674;28;20526;-79
2022/12/15 08:28:11;;;;;;;12.10;9.32;;;-2.00;73.20;;;;;;5078318;28;20150;-77
2022/12/15 08:30:36;;;;;;;11.02;8.73;;;-2.00;73.20;;;;;;5045150;28;20081;-78
2022/12/15 08:33:03;;;;;;;12.90;9.70;;;-2.00;73.30;;;;;;5078464;28;20055;-78
2022/12/15 08:35:28;;;;;;;10.63;9.05;;;-2.00;73.20;;;;;;5078973;28;20106;-78
2022/12/15 08:37:54;;;;;;;11.90;9.10;;;-2.00;73.30;;;;;;5045193;28;20028;-79
2022/12/15 08:40:20;;;;;;;13.10;9.52;;;-2.00;73.20;;;;;;5061926;28;20060;-79
2022/12/15 08:42:46;;;;;;;12.38;9.57;;;-2.00;73.20;;;;;;5062053;28;20067;-79
2022/12/15 08:45:11;;;;;;;12.57;9.23;;;-2.00;73.20;;;;;;5061696;28;20028;-79
2022/12/15 08:47:38;;;;;;;11.93;8.73;;;-2.00;73.20;;;;;;5079258;28;20490;-79
2022/12/15 08:50:08;;;;;;;13.07;9.32;;;-2.00;73.20;;;;;;5062035;28;20024;-79
2022/12/15 08:52:34;;;;;;;12.90;9.35;;;-2.00;73.20;;;;;;5080207;28;20028;-77
2022/12/15 08:55:00;;;;;;;11.55;8.93;;;-2.00;73.20;;;;;;5078630;28;20074;-77
2022/12/15 08:57:26;;;;;;;12.65;9.25;;;-2.00;73.20;;;;;;5061666;28;20064;-77
2022/12/15 08:59:52;;;;;;;11.57;9.63;;;-2.00;73.20;;;;;;5061866;28;20028;-76
2022/12/15 09:02:17;;;;;;;11.70;9.25;;;-2.00;73.20;;;;;;5077975;28;20389;-77
2022/12/15 09:04:44;;;;;;;12.68;9.30;;;-2.00;73.10;;;;;;5079867;28;20025;-76
2022/12/15 09:07:10;;;;;;;13.10;9.73;;;-2.00;73.20;;;;;;5079066;28;20507;-76
2022/12/15 09:09:36;;;;;;;12.05;9.40;;;-2.00;73.10;;;;;;5079495;28;20036;-77
2022/12/15 09:12:02;;;;;;;13.93;9.95;;;-2.00;73.10;;;;;;5061263;28;20028;-79
2022/12/15 09:14:28;;;;;;;11.68;8.68;;;-2.00;73.00;;;;;;5078568;28;20060;-77
2022/12/15 09:16:54;;;;;;;11.65;8.73;;;-2.00;73.10;;;;;;5045300;28;20085;-76
2022/12/15 09:19:19;;;;;;;13.38;9.50;;;-2.00;73.10;;;;;;5040627;28;20510;-76
2022/12/15 09:21:46;;;;;;;14.90;9.93;;;-2.00;73.00;;;;;;5074539;28;20036;-76
2022/12/15 09:24:13;;;;;;;12.40;9.32;;;-1.90;73.00;;;;;;5058407;28;20135;-78
2022/12/15 09:26:39;;;;;;;11.02;8.13;;;-1.90;73.00;;;;;;5074762;28;20043;-75
2022/12/15 09:29:05;;;;;;;12.23;8.95;;;-1.90;73.00;;;;;;5075073;28;20031;-74
2022/12/15 09:31:35;;;;;;;11.88;8.77;;;-1.90;73.00;;;;;;5057965;28;20024;-76
2022/12/15 09:34:01;;;;;;;12.93;10.15;;;-1.90;73.00;;;;;;5074738;28;20042;-78
2022/12/15 09:36:29;;;;;;;12.65;9.60;;;-1.90;72.90;;;;;;5057951;28;20090;-76
2022/12/15 09:38:54;;;;;;;12.30;8.52;;;-1.90;72.90;;;;;;5076290;28;20024;-76
2022/12/15 09:41:26;;;;;;;14.00;10.35;;;-1.90;72.90;;;;;;5075678;28;20035;-79
2022/12/15 09:44:04;;;;;;;12.75;9.23;;;-1.80;73.00;;;;;;5076469;28;20041;-79
2022/12/15 09:46:36;;;;;;;11.73;9.00;;;-1.80;73.00;;;;;;5057862;28;20039;-79
2022/12/15 09:49:10;;;;;;;11.48;8.75;;;-1.80;72.90;;;;;;5058509;28;20399;-77
2022/12/15 09:51:45;;;;;;;12.43;9.40;;;-1.80;72.90;;;;;;5075635;28;20051;-76
2022/12/15 09:54:11;;;;;;;12.25;9.50;;;-1.80;72.90;;;;;;5058252;28;20051;-79
2022/12/15 09:56:48;;;;;;;13.15;9.98;;;-1.80;72.90;;;;;;5075849;28;20473;-81
2022/12/15 09:59:14;;;;;;;14.10;9.45;;;-1.80;72.90;;;;;;5076615;28;20024;-80
2022/12/15 10:01:58;;;;;;;13.10;9.13;;;-1.70;72.90;;;;;;5074931;28;20485;-77
2022/12/15 10:04:44;;;;;;;13.80;9.20;;;-1.70;73.00;;;;;;5074645;28;20101;-80
2022/12/15 10:07:24;;;;;;;12.25;8.98;;;-1.70;72.90;;;;;;5027497;28;20525;-78
2022/12/15 10:09:50;;;;;;;12.05;9.15;;;-1.70;72.90;;;;;;5057404;28;20447;-77
2022/12/15 10:12:31;;;;;;;11.60;8.85;;;-1.70;72.90;;;;;;5074310;28;20033;-76
2022/12/15 10:15:22;;;;;;;12.57;8.85;;;-1.70;72.90;;;;;;5075014;28;20157;-77
2022/12/15 10:17:55;;;;;;;10.80;8.80;;;-1.60;73.00;;;;;;5059247;28;20044;-79
2022/12/15 10:20:23;;;;;;;11.68;9.68;;;-1.60;73.00;;;;;;5054167;28;20041;-78
2022/12/15 10:22:50;;;;;;;11.70;9.70;;;-1.60;73.00;;;;;;5053755;28;20454;-80
2022/12/15 10:25:28;;;;;;;11.70;9.02;;;-1.60;73.00;;;;;;5038103;28;20037;-79
2022/12/15 10:28:12;;;;;;;11.93;9.88;;;-1.60;72.90;;;;;;5037612;28;20021;-79
2022/12/15 10:30:57;;;;;;;13.20;10.02;;;-1.60;72.90;;;;;;5054890;28;20025;-79
2022/12/15 10:33:26;;;;;;;12.40;9.70;;;-1.50;73.00;;;;;;5053818;28;20025;-79
2022/12/15 10:35:53;;;;;;;13.15;9.00;;;-1.50;73.00;;;;;;5070919;28;20025;-78
2022/12/15 10:38:22;;;;;;;13.75;9.32;;;-1.50;73.00;;;;;;5055035;28;20036;-79
2022/12/15 10:40:58;;;;;;;13.07;10.05;;;-1.40;73.00;;;;;;5037234;28;20421;-77
2022/12/15 10:43:37;;;;;;;13.73;9.77;;;-1.40;73.10;;;;;;5070535;28;20462;-79
2022/12/15 10:46:18;;;;;;;13.10;10.65;;;-1.40;73.00;;;;;;5054589;28;20071;-80
2022/12/15 10:48:46;;;;;;;11.88;9.68;;;-1.40;73.10;;;;;;5053705;28;20025;-78
2022/12/15 10:51:16;;;;;;;14.85;10.18;;;-1.40;73.00;;;;;;5070798;28;20029;-80
2022/12/15 10:53:48;;;;;;;15.15;11.43;;;-1.40;73.00;;;;;;5054324;28;20037;-79
2022/12/15 10:56:24;;;;;;;13.40;10.23;;;-1.30;73.10;;;;;;5036479;28;20048;-76
2022/12/15 10:58:56;;;;;;;12.50;9.35;;;-1.30;73.10;;;;;;5053139;28;20029;-77
2022/12/15 11:01:27;;;;;;;13.38;10.10;;;-1.30;73.10;;;;;;5036591;28;20466;-76
2022/12/15 11:03:54;;;;;;;11.90;8.93;;;-1.20;73.10;;;;;;5054094;28;20037;-77
2022/12/15 11:06:22;;;;;;;12.93;11.00;;;-1.20;73.10;;;;;;5053402;28;20036;-76
2022/12/15 11:08:51;;;;;;;14.05;10.27;;;-1.20;73.10;;;;;;5052923;28;20029;-76
2022/12/15 11:14:24;;;;;;;12.55;9.60;;;-1.10;73.10;;;;;;5053634;28;20033;-76
2022/12/15 11:16:58;;;;;;;13.20;10.23;;;-1.10;73.10;;;;;;5053789;28;20151;-76
2022/12/15 11:19:42;;;;;;;11.80;9.50;;;-1.10;73.10;;;;;;5038644;28;20024;-76
2022/12/15 11:22:38;;;;;;;12.90;10.03;;;-1.00;73.20;;;;;;5055932;28;20028;-75
2022/12/15 11:25:10;;;;;;;11.80;9.98;;;-1.00;73.20;;;;;;5072479;28;20460;-82
2022/12/15 11:27:38;;;;;;;14.15;10.95;;;-1.00;73.10;;;;;;5055597;28;20029;-76
2022/12/15 11:30:18;;;;;;;14.32;10.68;;;-1.00;73.10;;;;;;5055888;28;20086;-76
2022/12/15 11:32:47;;;;;;;14.50;11.43;;;-0.90;73.30;;;;;;5055382;28;20116;-76
2022/12/15 11:35:20;;;;;;;13.52;11.07;;;-0.90;73.20;;;;;;5055226;28;20055;-75
2022/12/15 11:38:10;;;;;;;15.27;10.95;;;-0.90;73.20;;;;;;5072376;28;20373;-75
2022/12/15 11:40:40;;;;;;;14.27;10.82;;;-0.80;73.30;;;;;;5008642;28;20542;-78
2022/12/15 11:43:51;;;;;;;14.35;10.48;;;-0.80;73.20;;;;;;5055037;28;20078;-78
2022/12/15 11:46:18;;;;;;;13.95;10.70;;;-0.70;73.30;;;;;;4975884;28;20121;-74
2022/12/15 11:49:03;;;;;;;13.25;10.25;;;-0.70;73.30;;;;;;4991773;28;20523;-75
2022/12/15 11:52:22;;;;;;;14.35;10.98;;;-0.70;73.30;;;;;;5008177;28;20123;-77
2022/12/15 11:55:03;;;;;;;14.02;11.15;;;-0.70;73.40;;;;;;4975398;28;20034;-75
2022/12/15 11:57:47;;;;;;;14.15;10.77;;;-0.60;73.30;;;;;;5072083;28;20032;-74
2022/12/15 12:00:14;;;;;;;13.85;10.93;;;-0.60;73.40;;;;;;5072111;28;20032;-74
2022/12/15 12:03:18;;;;;;;14.25;11.65;;;-0.60;73.30;;;;;;5072288;28;20111;-74
2022/12/15 12:06:25;;;;;;;13.18;11.38;;;-0.50;73.40;;;;;;5072193;28;20376;-77
2022/12/15 12:09:12;;;;;;;13.77;10.77;;;-0.50;73.40;;;;;;5051428;28;20468;-77
2022/12/15 12:12:00;;;;;;;13.43;10.85;;;-0.40;73.40;;;;;;5055174;28;20035;-76
2022/12/15 12:14:54;;;;;;;12.07;10.15;;;-0.40;73.50;;;;;;5072042;28;20068;-76
2022/12/15 12:17:46;;;;;;;14.82;11.00;;;-0.40;73.50;;;;;;5072294;28;20560;-76
2022/12/15 12:20:26;;;;;;;13.93;10.32;;;-0.40;73.40;;;;;;5055284;28;20044;-78
2022/12/15 12:23:08;;;;;;;14.73;11.48;;;-0.30;73.50;;;;;;5072911;28;20071;-76
2022/12/15 12:25:58;;;;;;;14.38;11.73;;;-0.30;73.50;;;;;;5055330;28;20040;-76
2022/12/15 12:28:41;;;;;;;12.90;11.13;;;-0.20;73.60;;;;;;5072440;28;20075;-76
2022/12/15 12:31:27;;;;;;;14.77;11.15;;;-0.20;73.50;;;;;;5055025;28;20056;-77
2022/12/15 12:33:57;;;;;;;15.88;11.68;;;-0.20;73.50;;;;;;5054966;28;20075;-77
2022/12/15 12:36:23;;;;;;;15.32;10.95;;;-0.10;73.50;;;;;;5055480;28;20063;-75
2022/12/15 12:38:55;;;;;;;13.35;10.93;;;-0.10;73.50;;;;;;5055296;28;20461;-76
2022/12/15 12:41:49;;;;;;;12.98;10.52;;;0.00;73.60;;;;;;5055024;28;20024;-76
2022/12/15 12:44:29;;;;;;;13.77;11.27;;;0.00;73.60;;;;;;5050743;28;20080;-77
2022/12/15 12:47:03;;;;;;;13.68;11.10;;;0.00;73.60;;;;;;5071619;28;20024;-76
2022/12/15 12:49:38;;;;;;;13.88;11.30;;;0.10;73.60;;;;;;5055079;28;20362;-77
2022/12/15 12:52:05;;;;;;;;;;;0.10;73.60;;;;;;5055565;28;20372;-77
2022/12/15 12:54:38;;;;;;;12.27;10.50;;;0.10;73.50;;;;;;5056849;28;19908;-77
2022/12/15 12:57:10;;;;;;;13.65;10.88;;;0.20;73.50;;;;;;5058584;28;20029;-77
2022/12/15 12:59:57;;;;;;;15.90;11.25;;;0.30;73.50;;;;;;5075857;28;20029;-76
2022/12/15 13:02:25;;;;;;;14.23;11.23;;;0.30;73.50;;;;;;5074921;28;20477;-76
2022/12/15 13:05:03;;;;;;;13.30;11.27;;;0.30;73.50;;;;;;5076368;28;20060;-76
2022/12/15 13:07:36;;;;;;;13.65;11.40;;;0.40;73.70;;;;;;5076692;28;20085;-76
2022/12/15 13:10:08;;;;;;;13.35;10.75;;;0.40;73.70;;;;;;5058661;28;20028;-76
2022/12/15 13:12:35;;;;;;;13.65;10.35;;;0.50;73.70;;;;;;5076501;28;20035;-76
2022/12/15 13:15:11;;;;;;;12.95;10.55;;;0.50;73.60;;;;;;5075936;28;20339;-76
2022/12/15 13:17:42;;;;;;;15.25;11.07;;;0.50;73.60;;;;;;5058593;28;20028;-77
2022/12/15 13:20:23;;;;;;;13.55;10.68;;;0.50;73.70;;;;;;5076121;28;20110;-77
2022/12/15 13:22:49;;;;;;;16.27;11.07;;;0.60;73.80;;;;;;5074728;28;20068;-77
2022/12/15 13:25:39;;;;;;;13.88;11.30;;;0.60;73.80;;;;;;5041697;28;20028;-77
2022/12/15 13:28:21;;;;;;;13.00;10.32;;;0.70;73.90;;;;;;5058190;28;20039;-76
2022/12/15 13:31:12;;;;;;;13.85;10.13;;;0.70;73.90;;;;;;5074900;28;20166;-77
2022/12/15 13:33:49;;;;;;;13.32;10.55;;;0.70;73.90;;;;;;5074238;28;20028;-77
2022/12/15 13:36:40;;;;;;;13.50;10.43;;;0.70;73.90;;;;;;5058367;28;20029;-76
2022/12/15 13:39:12;;;;;;;15.75;10.77;;;0.80;74.00;;;;;;5057970;28;20028;-76
2022/12/15 13:41:53;;;;;;;14.60;11.05;;;0.80;74.00;;;;;;5074462;28;20082;-77
2022/12/15 13:44:37;;;;;;;12.13;9.85;;;0.80;74.00;;;;;;5058356;28;20431;-77
2022/12/15 13:47:21;;;;;;;12.93;9.88;;;0.90;74.00;;;;;;5074454;28;20020;-77
2022/12/15 13:50:11;;;;;;;14.07;11.02;;;0.90;74.00;;;;;;5041378;28;20029;-77
2022/12/15 13:52:50;;;;;;;12.15;9.88;;;1.00;74.10;;;;;;5074705;28;20127;-76
2022/12/15 13:55:25;;;;;;;12.02;10.43;;;1.00;74.10;;;;;;5076080;28;20024;-77
2022/12/15 13:57:57;;;;;;;13.73;11.10;;;1.00;74.10;;;;;;5074267;28;20036;-77
2022/12/15 14:00:22;;;;;;;12.52;10.38;;;1.10;74.10;;;;;;5041056;28;20032;-76
2022/12/15 14:02:48;;;;;;;14.23;11.27;;;1.10;74.10;;;;;;5074114;28;20435;-77
2022/12/15 14:05:17;;;;;;;14.02;11.10;;;1.10;74.10;;;;;;5075053;28;20032;-77
2022/12/15 14:07:52;;;;;;;12.55;10.85;;;1.20;74.20;;;;;;5075732;28;20033;-77
2022/12/15 14:10:33;;;;;;;12.13;10.68;;;1.20;74.20;;;;;;5074549;28;20032;-77
2022/12/15 14:13:10;;;;;;;13.15;10.65;;;1.20;74.20;;;;;;5056918;28;20036;-77
2022/12/15 14:15:44;;;;;;;14.25;10.55;;;1.30;74.30;;;;;;5074133;28;20055;-76
2022/12/15 14:18:31;;;;;;;12.25;10.38;;;1.30;74.30;;;;;;5057177;28;20021;-76
2022/12/15 14:21:00;;;;;;;12.93;10.23;;;1.30;74.30;;;;;;5074108;28;20052;-76
2022/12/15 14:23:28;;;;;;;14.43;11.43;;;1.30;74.30;;;;;;5056489;28;20036;-76
2022/12/15 14:26:02;;;;;;;13.75;11.00;;;1.40;74.40;;;;;;5057172;28;20556;-76
2022/12/15 14:28:31;;;;;;;14.70;10.75;;;1.40;74.40;;;;;;5075156;28;20064;-77
2022/12/15 14:31:01;;;;;;;13.55;10.45;;;1.50;74.40;;;;;;5056861;28;20524;-77
2022/12/15 14:33:27;;;;;;;14.25;11.25;;;1.50;74.40;;;;;;5056715;28;20052;-76
2022/12/15 14:35:56;;;;;;;13.93;10.35;;;1.50;74.40;;;;;;5074773;28;20067;-76
2022/12/15 14:38:24;;;;;;;11.73;9.68;;;1.50;74.40;;;;;;5056665;28;20048;-76
2022/12/15 14:40:55;;;;;;;13.10;9.98;;;1.50;74.40;;;;;;5074548;28;20031;-77
2022/12/15 14:43:31;;;;;;;13.32;11.45;;;1.60;74.50;;;;;;5075050;28;20082;-77
2022/12/15 14:46:08;;;;;;;13.77;10.65;;;1.60;74.50;;;;;;5056965;28;20032;-76
2022/12/15 14:48:49;;;;;;;12.23;10.48;;;1.60;74.50;;;;;;5074096;28;20028;-77
2022/12/15 14:51:14;;;;;;;12.60;10.10;;;1.60;74.50;;;;;;5057326;28;20032;-76
2022/12/15 14:53:46;;;;;;;14.55;10.80;;;1.60;74.50;;;;;;5056328;28;20056;-76
2022/12/15 14:56:13;;;;;;;12.43;10.05;;;1.60;74.50;;;;;;5073793;28;20446;-77
2022/12/15 14:58:40;;;;;;;11.98;10.00;;;1.60;74.50;;;;;;5073861;28;20033;-78
2022/12/15 15:02:00;;;;;;;13.05;11.02;;;1.70;74.50;;;;;;5056106;28;20522;-76
2022/12/15 15:04:31;;;;;;;12.30;10.38;;;1.70;74.60;;;;;;4992671;28;20068;-76
2022/12/15 15:07:02;;;;;;;12.23;10.50;;;1.70;74.50;;;;;;5053079;28;20102;-77
2022/12/15 15:09:28;;;;;;;12.07;10.63;;;1.70;74.60;;;;;;5074195;28;20024;-77
2022/12/15 15:12:16;;;;;;;12.95;10.45;;;1.70;74.60;;;;;;5073000;28;20498;-76
2022/12/15 15:14:59;;;;;;;12.63;10.25;;;1.70;74.60;;;;;;5072727;28;20021;-76
2022/12/15 15:17:26;;;;;;;11.23;9.20;;;1.70;74.60;;;;;;5055048;28;20021;-76
2022/12/15 15:20:16;;;;;;;11.63;9.95;;;1.70;74.60;;;;;;5073859;28;20051;-77
2022/12/15 15:22:44;;;;;;;11.93;9.68;;;1.80;74.70;;;;;;5073164;28;20036;-77
2022/12/15 15:25:43;;;;;;;11.73;9.50;;;1.70;74.60;;;;;;5039660;28;20032;-76
2022/12/15 15:28:21;;;;;;;11.07;9.73;;;1.80;74.60;;;;;;5039490;28;20028;-77